createdAt,value
2019-01-12T00:00:03.836Z,1.06
2019-01-12T00:01:03.872Z,1.14
2019-01-12T00:02:03.907Z,1.01
2019-01-12T00:03:03.978Z,1.14
2019-01-12T00:04:04.916Z,1.07
2019-01-12T00:05:04.420Z,1.08
2019-01-12T00:06:04.061Z,1.08
2019-01-12T00:07:04.106Z,1.10
2019-01-12T00:08:04.174Z,1.07
2019-01-12T00:09:04.208Z,1.14
2019-01-12T00:10:04.219Z,1.15
2019-01-12T00:11:04.255Z,1.10
2019-01-12T00:12:04.296Z,1.04
2019-01-12T00:13:04.333Z,1.08
2019-01-12T00:14:04.395Z,1.03
2019-01-12T00:15:04.416Z,1.16
2019-01-12T00:16:04.449Z,1.10
2019-01-12T00:17:04.490Z,1.18
2019-01-12T00:18:04.528Z,1.16
2019-01-12T00:19:04.594Z,1.15
2019-01-12T00:20:04.606Z,1.19
2019-01-12T00:21:04.654Z,1.15
2019-01-12T00:22:04.684Z,1.21
2019-01-12T00:23:04.727Z,1.14
2019-01-12T00:24:04.890Z,1.06
2019-01-12T00:25:04.801Z,1.06
2019-01-12T00:26:04.834Z,1.10
2019-01-12T00:27:04.884Z,1.08
2019-01-12T00:28:04.913Z,1.16
2019-01-12T00:29:04.992Z,1.08
2019-01-12T00:30:04.992Z,1.19
2019-01-12T00:31:05.030Z,1.19
2019-01-12T00:32:05.084Z,1.19
2019-01-12T00:33:05.107Z,1.16
2019-01-12T00:34:05.195Z,1.15
2019-01-12T00:35:05.185Z,1.22
2019-01-12T00:36:05.229Z,1.29
2019-01-12T00:37:05.265Z,1.32
2019-01-12T00:38:05.313Z,1.21
2019-01-12T00:39:05.358Z,1.15
2019-01-12T00:40:05.400Z,1.18
2019-01-12T00:41:05.418Z,1.10
2019-01-12T00:42:05.466Z,1.14
2019-01-12T00:43:05.496Z,1.08
2019-01-12T00:44:05.537Z,1.19
2019-01-12T00:45:05.600Z,1.18
2019-01-12T00:46:06.426Z,1.03
2019-01-12T00:47:05.656Z,1.08
2019-01-12T00:48:05.705Z,0.98
2019-01-12T00:49:05.734Z,1.04
2019-01-12T00:50:05.808Z,1.08
2019-01-12T00:51:05.812Z,1.03
2019-01-12T00:52:05.848Z,1.04
2019-01-12T00:53:05.887Z,1.06
2019-01-12T00:54:05.928Z,1.03
2019-01-12T00:55:05.986Z,1.06
2019-01-12T00:56:06.003Z,1.00
2019-01-12T00:57:06.043Z,1.00
2019-01-12T00:58:06.077Z,1.06
2019-01-12T00:59:06.123Z,1.04
2019-01-12T01:00:06.181Z,0.97
2019-01-12T01:01:06.213Z,0.98
2019-01-12T01:02:06.238Z,1.12
2019-01-12T01:03:06.285Z,1.08
2019-01-12T01:04:06.386Z,0.90
2019-01-12T01:05:06.914Z,1.04
2019-01-12T01:06:06.416Z,1.04
2019-01-12T01:07:06.427Z,1.07
2019-01-12T01:08:06.494Z,1.15
2019-01-12T01:09:06.507Z,1.12
2019-01-12T01:10:06.567Z,1.08
2019-01-12T01:11:07.411Z,1.06
2019-01-12T01:12:06.633Z,1.15
2019-01-12T01:13:06.662Z,1.12
2019-01-12T01:14:06.696Z,1.22
2019-01-12T01:15:06.735Z,1.16
2019-01-12T01:16:06.810Z,1.06
2019-01-12T01:17:06.823Z,1.07
2019-01-12T01:18:06.849Z,1.12
2019-01-12T01:19:06.986Z,1.07
2019-01-12T01:20:06.929Z,1.08
2019-01-12T01:21:06.983Z,1.10
2019-01-12T01:22:07.015Z,1.14
2019-01-12T01:23:07.051Z,1.15
2019-01-12T01:24:07.096Z,1.06
2019-01-12T01:25:07.134Z,0.98
2019-01-12T01:26:07.186Z,1.08
2019-01-12T01:27:07.200Z,1.10
2019-01-12T01:28:07.236Z,1.06
2019-01-12T01:29:07.296Z,1.08
2019-01-12T01:30:07.318Z,1.12
2019-01-12T01:31:07.373Z,1.14
2019-01-12T01:32:07.424Z,1.04
2019-01-12T01:33:07.439Z,1.07
2019-01-12T01:34:07.479Z,1.10
2019-01-12T01:35:07.508Z,1.15
2019-01-12T01:36:07.583Z,1.08
2019-01-12T01:37:07.590Z,1.12
2019-01-12T01:38:07.631Z,1.07
2019-01-12T01:39:07.665Z,1.08
2019-01-12T01:40:07.703Z,1.08
2019-01-12T01:41:07.766Z,1.08
2019-01-12T01:42:07.819Z,1.01
2019-01-12T01:43:07.818Z,1.00
2019-01-12T01:44:07.859Z,1.06
2019-01-12T01:45:07.897Z,1.10
2019-01-12T01:46:07.936Z,0.97
2019-01-12T01:47:08.909Z,1.01
2019-01-12T01:48:08.011Z,1.07
2019-01-12T01:49:08.053Z,1.04
2019-01-12T01:50:08.088Z,1.04
2019-01-12T01:51:08.126Z,1.04
2019-01-12T01:52:08.192Z,1.00
2019-01-12T01:53:08.237Z,1.00
2019-01-12T01:54:08.242Z,1.01
2019-01-12T01:55:08.289Z,1.07
2019-01-12T01:56:08.322Z,1.03
2019-01-12T01:57:08.367Z,0.98
2019-01-12T01:58:08.420Z,0.96
2019-01-12T01:59:08.432Z,0.94
2019-01-12T02:00:08.473Z,1.00
2019-01-12T02:01:08.512Z,1.00
2019-01-12T02:02:08.551Z,0.97
2019-01-12T02:03:08.610Z,1.01
2019-01-12T02:04:08.628Z,1.00
2019-01-12T02:05:08.666Z,0.97
2019-01-12T02:06:08.713Z,0.97
2019-01-12T02:07:08.757Z,0.97
2019-01-12T02:08:09.407Z,0.98
2019-01-12T02:09:09.414Z,1.03
2019-01-12T02:10:08.857Z,1.00
2019-01-12T02:11:09.407Z,1.03
2019-01-12T02:12:08.978Z,0.98
2019-01-12T02:13:08.991Z,1.00
2019-01-12T02:14:09.017Z,0.90
2019-01-12T02:15:09.050Z,0.94
2019-01-12T02:16:09.091Z,0.92
2019-01-12T02:17:09.136Z,1.01
2019-01-12T02:18:09.189Z,1.03
2019-01-12T02:19:09.217Z,1.00
2019-01-12T02:20:09.261Z,1.06
2019-01-12T02:21:09.303Z,1.15
2019-01-12T02:22:09.324Z,1.08
2019-01-12T02:23:09.385Z,1.06
2019-01-12T02:24:09.430Z,1.14
2019-01-12T02:25:09.437Z,1.12
2019-01-12T02:26:09.481Z,1.10
2019-01-12T02:27:09.514Z,1.03
2019-01-12T02:28:09.551Z,1.12
2019-01-12T02:29:09.614Z,1.08
2019-01-12T02:30:09.630Z,1.22
2019-01-12T02:31:09.668Z,1.28
2019-01-12T02:32:09.702Z,1.33
2019-01-12T02:33:09.743Z,1.34
2019-01-12T02:34:09.805Z,1.29
2019-01-12T02:35:09.901Z,1.42
2019-01-12T02:36:09.878Z,1.37
2019-01-12T02:37:09.900Z,1.39
2019-01-12T02:38:09.934Z,1.29
2019-01-12T02:39:09.999Z,1.36
2019-01-12T02:40:10.025Z,1.32
2019-01-12T02:41:10.046Z,1.29
2019-01-12T02:42:10.909Z,1.29
2019-01-12T02:43:10.122Z,1.24
2019-01-12T02:44:10.181Z,1.24
2019-01-12T02:45:10.219Z,1.18
2019-01-12T02:46:10.237Z,1.19
2019-01-12T02:47:10.286Z,1.22
2019-01-12T02:48:10.319Z,1.18
2019-01-12T02:49:10.358Z,1.19
2019-01-12T02:50:10.420Z,1.15
2019-01-12T02:51:10.431Z,1.10
2019-01-12T02:52:12.403Z,1.06
2019-01-12T02:53:10.507Z,1.08
2019-01-12T02:54:10.549Z,1.03
2019-01-12T02:55:10.639Z,1.03
2019-01-12T02:56:10.625Z,0.90
2019-01-12T02:57:10.672Z,1.10
2019-01-12T02:58:10.704Z,0.97
2019-01-12T02:59:10.739Z,1.03
2019-01-12T03:00:10.808Z,1.00
2019-01-12T03:01:10.820Z,1.00
2019-01-12T03:02:10.862Z,0.96
2019-01-12T03:03:10.923Z,0.94
2019-01-12T03:04:10.930Z,0.94
2019-01-12T03:05:11.017Z,0.89
2019-01-12T03:06:11.008Z,0.97
2019-01-12T03:07:11.044Z,0.97
2019-01-12T03:08:11.085Z,0.96
2019-01-12T03:09:11.904Z,1.03
2019-01-12T03:10:11.240Z,1.01
2019-01-12T03:11:11.225Z,0.90
2019-01-12T03:12:12.210Z,0.94
2019-01-12T03:13:11.274Z,0.90
2019-01-12T03:14:11.314Z,0.86
2019-01-12T03:15:11.359Z,0.88
2019-01-12T03:16:11.419Z,0.90
2019-01-12T03:17:11.494Z,0.94
2019-01-12T03:18:11.467Z,0.90
2019-01-12T03:19:11.505Z,0.94
2019-01-12T03:20:12.402Z,0.94
2019-01-12T03:21:11.601Z,0.98
2019-01-12T03:22:11.620Z,0.96
2019-01-12T03:23:11.656Z,0.89
2019-01-12T03:24:11.772Z,0.85
2019-01-12T03:25:18.009Z,0.94
2019-01-12T03:26:11.820Z,0.86
2019-01-12T03:27:11.820Z,0.88
2019-01-12T03:28:11.852Z,0.88
2019-01-12T03:29:11.895Z,0.83
2019-01-12T03:30:12.438Z,0.86
2019-01-12T03:31:12.041Z,0.80
2019-01-12T03:32:12.014Z,0.78
2019-01-12T03:33:12.060Z,0.86
2019-01-12T03:34:12.119Z,0.88
2019-01-12T03:35:12.111Z,0.83
2019-01-12T03:36:12.198Z,0.89
2019-01-12T03:37:12.190Z,0.89
2019-01-12T03:38:12.229Z,0.83
2019-01-12T03:39:12.267Z,0.85
2019-01-12T03:40:12.304Z,0.89
2019-01-12T03:41:12.362Z,0.86
2019-01-12T03:42:12.394Z,0.89
2019-01-12T03:43:12.414Z,0.88
2019-01-12T03:44:12.457Z,0.82
2019-01-12T03:45:12.515Z,0.90
2019-01-12T03:46:12.608Z,0.92
2019-01-12T03:47:12.599Z,0.89
2019-01-12T03:48:12.606Z,0.89
2019-01-12T03:49:12.655Z,0.80
2019-01-12T03:50:12.708Z,0.89
2019-01-12T03:51:12.723Z,0.83
2019-01-12T03:52:12.777Z,0.82
2019-01-12T03:53:12.805Z,0.82
2019-01-12T03:54:12.833Z,0.88
2019-01-12T03:55:12.873Z,0.88
2019-01-12T03:56:12.910Z,0.96
2019-01-12T03:57:12.974Z,0.89
2019-01-12T03:58:13.007Z,0.86
2019-01-12T03:59:13.025Z,0.89
2019-01-12T04:00:13.060Z,0.86
2019-01-12T04:01:13.100Z,0.83
2019-01-12T04:02:13.137Z,0.92
2019-01-12T04:03:13.202Z,0.89
2019-01-12T04:04:13.213Z,0.88
2019-01-12T04:05:13.263Z,0.88
2019-01-12T04:06:13.287Z,0.83
2019-01-12T04:07:13.329Z,0.79
2019-01-12T04:08:13.403Z,0.83
2019-01-12T04:09:13.404Z,0.83
2019-01-12T04:10:13.898Z,0.82
2019-01-12T04:11:13.492Z,0.82
2019-01-12T04:12:13.518Z,0.86
2019-01-12T04:13:13.586Z,0.86
2019-01-12T04:14:13.592Z,0.79
2019-01-12T04:15:14.397Z,0.82
2019-01-12T04:16:13.669Z,0.82
2019-01-12T04:17:13.708Z,0.85
2019-01-12T04:18:14.228Z,0.82
2019-01-12T04:19:13.785Z,0.86
2019-01-12T04:20:13.828Z,0.82
2019-01-12T04:21:14.946Z,0.80
2019-01-12T04:22:13.904Z,0.82
2019-01-12T04:23:13.938Z,0.85
2019-01-12T04:24:13.996Z,0.88
2019-01-12T04:25:14.079Z,0.82
2019-01-12T04:26:14.048Z,0.78
2019-01-12T04:27:14.084Z,0.76
2019-01-12T04:28:14.161Z,0.75
2019-01-12T04:29:14.896Z,0.72
2019-01-12T04:30:14.898Z,0.70
2019-01-12T04:31:14.239Z,0.75
2019-01-12T04:32:14.280Z,0.68
2019-01-12T04:33:14.335Z,0.82
2019-01-12T04:34:14.380Z,0.68
2019-01-12T04:35:14.387Z,0.71
2019-01-12T04:36:14.428Z,0.72
2019-01-12T04:37:14.467Z,0.61
2019-01-12T04:38:14.504Z,0.71
2019-01-12T04:39:14.567Z,0.71
2019-01-12T04:40:15.394Z,0.64
2019-01-12T04:41:15.397Z,0.65
2019-01-12T04:42:14.653Z,0.62
2019-01-12T04:43:14.699Z,0.64
2019-01-12T04:44:14.757Z,0.62
2019-01-12T04:45:14.767Z,0.58
2019-01-12T04:46:14.806Z,0.70
2019-01-12T04:47:14.845Z,0.67
2019-01-12T04:48:14.893Z,0.72
2019-01-12T04:49:14.945Z,0.80
2019-01-12T04:50:14.975Z,0.80
2019-01-12T04:51:15.000Z,0.64
2019-01-12T04:52:15.040Z,0.60
2019-01-12T04:53:15.070Z,0.65
2019-01-12T04:54:15.112Z,0.70
2019-01-12T04:55:15.167Z,0.68
2019-01-12T04:56:15.188Z,0.67
2019-01-12T04:57:15.224Z,0.67
2019-01-12T04:58:15.291Z,0.65
2019-01-12T04:59:15.303Z,0.67
2019-01-12T05:00:15.367Z,0.67
2019-01-12T05:01:15.373Z,0.53
2019-01-12T05:02:15.414Z,0.67
2019-01-12T05:03:15.459Z,0.65
2019-01-12T05:04:15.485Z,0.62
2019-01-12T05:05:15.730Z,0.60
2019-01-12T05:06:15.563Z,0.51
2019-01-12T05:07:15.598Z,0.60
2019-01-12T05:08:15.639Z,0.60
2019-01-12T05:09:15.677Z,0.60
2019-01-12T05:10:15.752Z,0.58
2019-01-12T05:11:15.752Z,0.70
2019-01-12T05:12:15.798Z,0.62
2019-01-12T05:13:15.826Z,0.67
2019-01-12T05:14:15.863Z,0.67
2019-01-12T05:15:15.939Z,0.61
2019-01-12T05:16:17.391Z,0.71
2019-01-12T05:17:15.979Z,0.62
2019-01-12T05:18:16.027Z,0.72
2019-01-12T05:19:16.077Z,0.67
2019-01-12T05:20:16.123Z,0.76
2019-01-12T05:21:16.128Z,0.61
2019-01-12T05:22:16.172Z,0.65
2019-01-12T05:23:16.890Z,0.65
2019-01-12T05:24:16.258Z,0.65
2019-01-12T05:25:16.304Z,0.71
2019-01-12T05:26:16.385Z,0.71
2019-01-12T05:27:16.354Z,0.71
2019-01-12T05:28:16.396Z,0.68
2019-01-12T05:29:16.431Z,0.80
2019-01-12T05:30:17.131Z,0.82
2019-01-12T05:31:16.528Z,0.80
2019-01-12T05:32:16.549Z,0.83
2019-01-12T05:33:16.584Z,0.89
2019-01-12T05:34:16.621Z,0.90
2019-01-12T05:35:16.664Z,0.83
2019-01-12T05:36:16.724Z,0.85
2019-01-12T05:37:16.739Z,0.89
2019-01-12T05:38:17.389Z,0.90
2019-01-12T05:39:16.807Z,0.86
2019-01-12T05:40:16.848Z,0.90
2019-01-12T05:41:16.906Z,0.89
2019-01-12T05:42:16.925Z,0.88
2019-01-12T05:43:16.966Z,0.86
2019-01-12T05:44:17.002Z,0.89
2019-01-12T05:45:17.043Z,0.89
2019-01-12T05:46:17.100Z,0.89
2019-01-12T05:47:17.113Z,0.90
2019-01-12T05:48:17.154Z,0.92
2019-01-12T05:49:17.189Z,0.92
2019-01-12T05:50:17.224Z,0.90
2019-01-12T05:51:17.290Z,0.89
2019-01-12T05:52:17.304Z,0.89
2019-01-12T05:53:17.341Z,0.86
2019-01-12T05:54:17.378Z,0.86
2019-01-12T05:55:17.419Z,0.83
2019-01-12T05:56:17.481Z,0.83
2019-01-12T05:57:17.515Z,0.83
2019-01-12T05:58:17.551Z,0.83
2019-01-12T05:59:17.583Z,0.83
2019-01-12T06:00:17.608Z,0.83
2019-01-12T06:01:17.643Z,0.82
2019-01-12T06:02:17.706Z,0.89
2019-01-12T06:03:19.386Z,0.92
2019-01-12T06:04:18.387Z,0.89
2019-01-12T06:05:17.808Z,0.89
2019-01-12T06:06:17.842Z,0.89
2019-01-12T06:07:18.229Z,0.88
2019-01-12T06:08:17.908Z,0.89
2019-01-12T06:09:17.956Z,0.96
2019-01-12T06:10:18.012Z,0.94
2019-01-12T06:11:18.029Z,0.94
2019-01-12T06:12:18.080Z,0.98
2019-01-12T06:13:18.111Z,0.96
2019-01-12T06:14:18.887Z,0.90
2019-01-12T06:15:18.196Z,0.88
2019-01-12T06:16:18.220Z,0.92
2019-01-12T06:17:18.280Z,0.89
2019-01-12T06:18:18.292Z,0.97
2019-01-12T06:19:18.336Z,1.00
2019-01-12T06:20:18.376Z,0.98
2019-01-12T06:21:18.408Z,0.94
2019-01-12T06:22:18.469Z,1.03
2019-01-12T06:23:18.483Z,1.10
2019-01-12T06:24:18.523Z,1.01
2019-01-12T06:25:18.570Z,0.97
2019-01-12T06:26:19.417Z,1.00
2019-01-12T06:27:18.656Z,1.07
2019-01-12T06:28:19.384Z,1.01
2019-01-12T06:29:18.715Z,0.97
2019-01-12T06:30:18.752Z,1.06
2019-01-12T06:31:19.394Z,1.01
2019-01-12T06:32:18.841Z,1.00
2019-01-12T06:33:18.897Z,0.98
2019-01-12T06:34:18.907Z,1.01
2019-01-12T06:35:18.945Z,1.07
2019-01-12T06:36:18.986Z,1.07
2019-01-12T06:37:19.027Z,1.08
2019-01-12T06:38:19.091Z,1.07
2019-01-12T06:39:19.097Z,1.06
2019-01-12T06:40:19.146Z,1.07
2019-01-12T06:41:19.185Z,1.08
2019-01-12T06:42:19.217Z,1.14
2019-01-12T06:43:19.889Z,1.07
2019-01-12T06:44:19.297Z,1.10
2019-01-12T06:45:19.326Z,1.10
2019-01-12T06:46:19.366Z,1.08
2019-01-12T06:47:19.411Z,1.08
2019-01-12T06:48:19.463Z,1.03
2019-01-12T06:49:19.511Z,1.03
2019-01-12T06:50:20.385Z,0.97
2019-01-12T06:51:19.558Z,1.03
2019-01-12T06:52:19.604Z,1.00
2019-01-12T06:53:20.383Z,1.00
2019-01-12T06:54:19.701Z,0.96
2019-01-12T06:55:19.719Z,1.00
2019-01-12T06:56:19.746Z,0.92
2019-01-12T06:57:19.822Z,0.94
2019-01-12T06:58:19.830Z,0.96
2019-01-12T06:59:19.899Z,0.97
2019-01-12T07:00:20.882Z,0.98
2019-01-12T07:01:19.943Z,0.97
2019-01-12T07:02:19.991Z,0.98
2019-01-12T07:03:20.027Z,0.96
2019-01-12T07:04:20.128Z,0.94
2019-01-12T07:05:20.115Z,0.94
2019-01-12T07:06:20.132Z,0.97
2019-01-12T07:07:20.172Z,0.92
2019-01-12T07:08:20.901Z,0.97
2019-01-12T07:09:20.880Z,0.96
2019-01-12T07:10:20.291Z,0.92
2019-01-12T07:11:20.883Z,0.94
2019-01-12T07:12:20.902Z,0.94
2019-01-12T07:13:20.399Z,0.89
2019-01-12T07:14:20.465Z,0.94
2019-01-12T07:15:20.473Z,0.89
2019-01-12T07:16:20.511Z,0.89
2019-01-12T07:17:20.563Z,0.90
2019-01-12T07:18:20.612Z,0.85
2019-01-12T07:19:20.655Z,0.89
2019-01-12T07:20:20.663Z,0.82
2019-01-12T07:21:21.384Z,0.86
2019-01-12T07:22:20.742Z,0.89
2019-01-12T07:23:20.780Z,0.88
2019-01-12T07:24:20.839Z,0.86
2019-01-12T07:25:21.381Z,0.86
2019-01-12T07:26:20.892Z,0.83
2019-01-12T07:27:20.932Z,0.82
2019-01-12T07:28:20.986Z,0.82
2019-01-12T07:29:21.011Z,0.85
2019-01-12T07:30:21.068Z,0.86
2019-01-12T07:31:21.085Z,0.89
2019-01-12T07:32:21.122Z,0.86
2019-01-12T07:33:21.169Z,0.92
2019-01-12T07:34:21.199Z,0.94
2019-01-12T07:35:21.265Z,0.90
2019-01-12T07:36:21.277Z,0.98
2019-01-12T07:37:21.314Z,0.94
2019-01-12T07:38:21.362Z,0.94
2019-01-12T07:39:21.409Z,0.94
2019-01-12T07:40:21.459Z,0.88
2019-01-12T07:41:21.474Z,0.89
2019-01-12T07:42:22.154Z,0.90
2019-01-12T07:43:21.542Z,1.01
2019-01-12T07:44:21.582Z,0.96
2019-01-12T07:45:21.638Z,0.98
2019-01-12T07:46:21.720Z,1.00
2019-01-12T07:47:21.696Z,1.01
2019-01-12T07:48:21.748Z,0.94
2019-01-12T07:49:21.775Z,0.98
2019-01-12T07:50:21.822Z,0.97
2019-01-12T07:51:21.883Z,1.00
2019-01-12T07:52:22.381Z,1.01
2019-01-12T07:53:21.930Z,1.01
2019-01-12T07:54:21.962Z,1.00
2019-01-12T07:55:22.028Z,0.97
2019-01-12T07:56:24.669Z,1.03
2019-01-12T07:57:22.077Z,1.03
2019-01-12T07:58:22.115Z,1.07
2019-01-12T07:59:22.156Z,1.08
2019-01-12T08:00:22.192Z,1.07
2019-01-12T08:01:22.267Z,1.14
2019-01-12T08:02:22.351Z,1.16
2019-01-12T08:03:22.308Z,1.18
2019-01-12T08:04:22.348Z,1.19
2019-01-12T08:05:22.386Z,1.16
2019-01-12T08:06:22.454Z,1.15
2019-01-12T08:07:22.482Z,1.21
2019-01-12T08:08:22.499Z,1.21
2019-01-12T08:09:22.623Z,1.16
2019-01-12T08:10:22.581Z,1.19
2019-01-12T08:11:22.636Z,1.15
2019-01-12T08:12:22.673Z,1.24
2019-01-12T08:13:22.705Z,1.18
2019-01-12T08:14:22.733Z,1.19
2019-01-12T08:15:22.782Z,1.26
2019-01-12T08:16:22.816Z,1.34
2019-01-12T08:17:22.888Z,1.42
2019-01-12T08:18:22.899Z,1.29
2019-01-12T08:19:22.928Z,1.36
2019-01-12T08:20:22.965Z,1.42
2019-01-12T08:21:23.407Z,1.40
2019-01-12T08:22:23.072Z,1.40
2019-01-12T08:23:23.116Z,1.37
2019-01-12T08:24:23.130Z,1.37
2019-01-12T08:25:23.158Z,1.44
2019-01-12T08:26:23.202Z,1.50
2019-01-12T08:27:23.241Z,1.46
2019-01-12T08:28:23.297Z,1.52
2019-01-12T08:29:23.313Z,1.51
2019-01-12T08:30:23.362Z,1.55
2019-01-12T08:31:24.374Z,1.47
2019-01-12T08:32:23.431Z,1.52
2019-01-12T08:33:23.506Z,1.40
2019-01-12T08:34:23.513Z,1.50
2019-01-12T08:35:23.555Z,1.52
2019-01-12T08:36:23.592Z,1.47
2019-01-12T08:37:23.627Z,1.52
2019-01-12T08:38:23.699Z,1.62
2019-01-12T08:39:23.707Z,1.52
2019-01-12T08:40:24.395Z,1.65
2019-01-12T08:41:23.787Z,1.68
2019-01-12T08:42:23.823Z,1.68
2019-01-12T08:43:23.881Z,1.65
2019-01-12T08:44:23.903Z,1.64
2019-01-12T08:45:23.942Z,1.60
2019-01-12T08:46:23.982Z,1.62
2019-01-12T08:47:24.875Z,1.65
2019-01-12T08:48:24.098Z,1.68
2019-01-12T08:49:24.127Z,1.64
2019-01-12T08:50:24.132Z,1.64
2019-01-12T08:51:24.173Z,1.62
2019-01-12T08:52:24.213Z,1.62
2019-01-12T08:53:24.274Z,1.65
2019-01-12T08:54:24.290Z,1.68
2019-01-12T08:55:24.789Z,1.71
2019-01-12T08:56:24.380Z,1.62
2019-01-12T08:57:24.407Z,1.61
2019-01-12T08:58:25.873Z,1.72
2019-01-12T08:59:24.518Z,1.78
2019-01-12T09:00:27.411Z,1.79
2019-01-12T09:01:24.570Z,1.75
2019-01-12T09:02:24.605Z,1.82
2019-01-12T09:03:25.373Z,1.79
2019-01-12T09:04:24.703Z,1.80
2019-01-12T09:05:24.728Z,1.79
2019-01-12T09:06:24.776Z,1.75
2019-01-12T09:07:24.799Z,1.69
2019-01-12T09:08:24.839Z,1.76
2019-01-12T09:09:24.904Z,1.80
2019-01-12T09:10:24.936Z,1.75
2019-01-12T09:11:24.958Z,1.79
2019-01-12T09:12:25.008Z,1.76
2019-01-12T09:13:25.040Z,1.73
2019-01-12T09:14:25.872Z,1.80
2019-01-12T09:15:25.881Z,1.79
2019-01-12T09:16:25.155Z,1.82
2019-01-12T09:17:25.199Z,1.76
2019-01-12T09:18:25.234Z,1.76
2019-01-12T09:19:25.872Z,1.76
2019-01-12T09:20:25.335Z,1.75
2019-01-12T09:21:25.359Z,1.80
2019-01-12T09:22:25.390Z,1.73
2019-01-12T09:23:25.439Z,1.82
2019-01-12T09:24:25.470Z,1.83
2019-01-12T09:25:25.535Z,1.83
2019-01-12T09:26:26.372Z,1.89
2019-01-12T09:27:25.598Z,1.89
2019-01-12T09:28:25.634Z,1.83
2019-01-12T09:29:25.668Z,1.89
2019-01-12T09:30:25.743Z,1.94
2019-01-12T09:31:25.749Z,1.98
2019-01-12T09:32:25.791Z,1.94
2019-01-12T09:33:25.827Z,1.97
2019-01-12T09:34:25.871Z,1.98
2019-01-12T09:35:25.924Z,1.83
2019-01-12T09:36:25.950Z,1.83
2019-01-12T09:37:25.988Z,1.83
2019-01-12T09:38:26.024Z,1.89
2019-01-12T09:39:26.065Z,1.75
2019-01-12T09:40:26.144Z,1.79
2019-01-12T09:41:26.163Z,1.83
2019-01-12T09:42:26.198Z,1.73
2019-01-12T09:43:26.225Z,1.79
2019-01-12T09:44:26.275Z,1.78
2019-01-12T09:45:26.335Z,1.73
2019-01-12T09:46:26.370Z,1.79
2019-01-12T09:47:26.381Z,1.72
2019-01-12T09:48:26.428Z,1.82
2019-01-12T09:49:26.471Z,1.78
2019-01-12T09:50:26.502Z,1.75
2019-01-12T09:51:26.562Z,1.68
2019-01-12T09:52:26.610Z,1.61
2019-01-12T09:53:26.618Z,1.68
2019-01-12T09:54:26.665Z,1.65
2019-01-12T09:55:26.699Z,1.61
2019-01-12T09:56:26.740Z,1.68
2019-01-12T09:57:26.794Z,1.69
2019-01-12T09:58:26.813Z,1.78
2019-01-12T09:59:27.091Z,1.64
2019-01-12T10:00:26.899Z,1.80
2019-01-12T10:01:26.957Z,1.69
2019-01-12T10:02:26.999Z,1.75
2019-01-12T10:03:27.029Z,1.78
2019-01-12T10:04:27.049Z,1.76
2019-01-12T10:05:27.096Z,1.78
2019-01-12T10:06:27.141Z,1.76
2019-01-12T10:07:27.174Z,1.79
2019-01-12T10:08:27.237Z,1.82
2019-01-12T10:09:27.255Z,1.79
2019-01-12T10:10:27.288Z,1.80
2019-01-12T10:11:27.327Z,1.76
2019-01-12T10:12:27.406Z,1.79
2019-01-12T10:13:27.405Z,1.82
2019-01-12T10:14:27.449Z,1.75
2019-01-12T10:15:27.871Z,1.79
2019-01-12T10:16:27.530Z,1.78
2019-01-12T10:17:27.595Z,1.73
2019-01-12T10:18:27.612Z,1.68
2019-01-12T10:19:27.647Z,1.82
2019-01-12T10:20:27.681Z,1.76
2019-01-12T10:21:27.725Z,1.79
2019-01-12T10:22:28.637Z,1.82
2019-01-12T10:23:27.823Z,1.76
2019-01-12T10:24:27.866Z,1.78
2019-01-12T10:25:27.887Z,1.85
2019-01-12T10:26:27.915Z,1.75
2019-01-12T10:27:27.958Z,1.79
2019-01-12T10:28:28.075Z,1.76
2019-01-12T10:29:28.870Z,1.79
2019-01-12T10:30:28.868Z,1.78
2019-01-12T10:31:28.129Z,1.83
2019-01-12T10:32:28.153Z,1.80
2019-01-12T10:33:28.218Z,1.82
2019-01-12T10:34:28.870Z,1.78
2019-01-12T10:35:28.292Z,1.65
2019-01-12T10:36:28.312Z,1.72
2019-01-12T10:37:28.357Z,1.78
2019-01-12T10:38:28.393Z,1.68
2019-01-12T10:39:28.703Z,1.76
2019-01-12T10:40:28.469Z,1.79
2019-01-12T10:41:29.367Z,1.79
2019-01-12T10:42:28.548Z,1.79
2019-01-12T10:43:28.587Z,1.73
2019-01-12T10:44:28.653Z,1.75
2019-01-12T10:45:28.673Z,1.82
2019-01-12T10:46:28.707Z,1.82
2019-01-12T10:47:28.748Z,1.76
2019-01-12T10:48:28.848Z,1.72
2019-01-12T10:49:28.851Z,1.68
2019-01-12T10:50:28.878Z,1.68
2019-01-12T10:51:28.909Z,1.65
2019-01-12T10:52:28.942Z,1.73
2019-01-12T10:53:28.988Z,1.75
2019-01-12T10:54:29.017Z,1.80
2019-01-12T10:55:29.085Z,1.82
2019-01-12T10:56:29.107Z,1.85
2019-01-12T10:57:29.136Z,1.78
2019-01-12T10:58:29.175Z,1.75
2019-01-12T10:59:29.225Z,1.98
2019-01-12T11:00:29.726Z,1.90
2019-01-12T11:01:29.446Z,1.85
2019-01-12T11:02:29.344Z,1.82
2019-01-12T11:03:29.447Z,1.90
2019-01-12T11:04:29.417Z,1.85
2019-01-12T11:05:29.476Z,1.93
2019-01-12T11:06:29.499Z,1.87
2019-01-12T11:07:29.529Z,1.97
2019-01-12T11:08:30.865Z,1.93
2019-01-12T11:09:29.611Z,2.02
2019-01-12T11:10:29.672Z,2.04
2019-01-12T11:11:29.707Z,2.09
2019-01-12T11:12:29.729Z,2.02
2019-01-12T11:13:29.767Z,2.04
2019-01-12T11:14:30.372Z,2.09
2019-01-12T11:15:29.887Z,1.97
2019-01-12T11:16:29.892Z,1.97
2019-01-12T11:17:30.673Z,1.93
2019-01-12T11:18:29.971Z,2.02
2019-01-12T11:19:30.019Z,2.09
2019-01-12T11:20:30.089Z,2.12
2019-01-12T11:21:30.107Z,2.09
2019-01-12T11:22:30.131Z,2.10
2019-01-12T11:23:30.171Z,2.13
2019-01-12T11:24:30.225Z,2.19
2019-01-12T11:25:30.251Z,2.23
2019-01-12T11:26:30.304Z,2.30
2019-01-12T11:27:30.317Z,2.33
2019-01-12T11:28:30.866Z,2.31
2019-01-12T11:29:30.412Z,2.35
2019-01-12T11:30:30.451Z,2.33
2019-01-12T11:31:30.557Z,2.35
2019-01-12T11:32:30.525Z,2.37
2019-01-12T11:33:30.561Z,2.26
2019-01-12T11:34:31.406Z,2.09
2019-01-12T11:35:30.642Z,2.16
2019-01-12T11:36:30.702Z,2.06
2019-01-12T11:37:30.729Z,2.10
2019-01-12T11:38:30.850Z,2.10
2019-01-12T11:39:30.800Z,2.10
2019-01-12T11:40:30.843Z,2.26
2019-01-12T11:41:31.211Z,2.27
2019-01-12T11:42:30.939Z,2.26
2019-01-12T11:43:30.962Z,2.22
2019-01-12T11:44:31.005Z,2.23
2019-01-12T11:45:31.084Z,2.23
2019-01-12T11:46:31.117Z,2.30
2019-01-12T11:47:31.131Z,2.31
2019-01-12T11:48:31.168Z,2.38
2019-01-12T11:49:31.205Z,2.31
2019-01-12T11:50:31.251Z,2.35
2019-01-12T11:51:31.306Z,2.34
2019-01-12T11:52:31.431Z,2.30
2019-01-12T11:53:31.384Z,2.26
2019-01-12T11:54:31.402Z,2.23
2019-01-12T11:55:32.383Z,2.15
2019-01-12T11:56:31.485Z,2.09
2019-01-12T11:57:31.550Z,2.10
2019-01-12T11:58:31.897Z,2.08
2019-01-12T11:59:31.604Z,2.02
2019-01-12T12:00:31.653Z,2.04
2019-01-12T12:01:31.685Z,2.09
2019-01-12T12:02:37.552Z,2.09
2019-01-12T12:03:32.902Z,2.09
2019-01-12T12:04:33.147Z,2.06
2019-01-12T12:05:32.405Z,2.08
2019-01-12T12:06:32.864Z,2.02
2019-01-12T12:07:31.926Z,2.06
2019-01-12T12:08:31.979Z,2.09
2019-01-12T12:09:32.001Z,2.02
2019-01-12T12:10:32.040Z,2.06
2019-01-12T12:11:32.088Z,2.04
2019-01-12T12:12:32.123Z,2.09
2019-01-12T12:13:32.255Z,2.02
2019-01-12T12:14:32.201Z,1.99
2019-01-12T12:15:32.250Z,1.97
2019-01-12T12:16:32.280Z,1.99
2019-01-12T12:17:32.324Z,2.02
2019-01-12T12:18:32.370Z,2.02
2019-01-12T12:19:32.394Z,2.02
2019-01-12T12:20:32.446Z,1.97
2019-01-12T12:21:32.475Z,1.98
2019-01-12T12:22:32.513Z,1.91
2019-01-12T12:23:32.573Z,1.94
2019-01-12T12:24:32.592Z,2.02
2019-01-12T12:25:34.363Z,2.04
2019-01-12T12:26:32.672Z,1.98
2019-01-12T12:27:33.362Z,2.04
2019-01-12T12:28:33.362Z,2.08
2019-01-12T12:29:32.789Z,2.09
2019-01-12T12:30:32.825Z,2.09
2019-01-12T12:31:32.881Z,2.12
2019-01-12T12:32:32.908Z,2.12
2019-01-12T12:33:33.863Z,2.13
2019-01-12T12:34:32.988Z,2.12
2019-01-12T12:35:37.599Z,2.12
2019-01-12T12:36:33.065Z,2.10
2019-01-12T12:37:33.106Z,2.10
2019-01-12T12:38:33.161Z,2.12
2019-01-12T12:39:33.228Z,2.13
2019-01-12T12:40:33.244Z,2.16
2019-01-12T12:41:33.263Z,2.10
2019-01-12T12:42:33.310Z,2.10
2019-01-12T12:43:33.345Z,2.09
2019-01-12T12:44:33.420Z,2.20
2019-01-12T12:45:33.428Z,2.17
2019-01-12T12:46:33.463Z,2.16
2019-01-12T12:47:33.498Z,2.17
2019-01-12T12:48:33.539Z,2.19
2019-01-12T12:49:33.643Z,2.20
2019-01-12T12:50:33.660Z,2.20
2019-01-12T12:51:34.365Z,2.27
2019-01-12T12:52:33.695Z,2.31
2019-01-12T12:53:34.476Z,2.28
2019-01-12T12:54:33.825Z,2.17
2019-01-12T12:55:33.838Z,2.12
2019-01-12T12:56:33.871Z,2.28
2019-01-12T12:57:33.901Z,2.13
2019-01-12T12:58:33.939Z,2.20
2019-01-12T12:59:33.999Z,2.16
2019-01-12T13:00:34.863Z,2.16
2019-01-12T13:01:34.663Z,2.19
2019-01-12T13:02:34.093Z,2.13
2019-01-12T13:03:34.131Z,2.27
2019-01-12T13:04:34.192Z,2.15
2019-01-12T13:05:34.242Z,2.23
2019-01-12T13:06:34.250Z,2.26
2019-01-12T13:07:34.288Z,2.28
2019-01-12T13:08:34.334Z,2.34
2019-01-12T13:09:34.860Z,2.37
2019-01-12T13:10:34.454Z,2.26
2019-01-12T13:11:34.451Z,2.35
2019-01-12T13:12:34.487Z,2.37
2019-01-12T13:13:34.537Z,2.41
2019-01-12T13:14:34.611Z,2.55
2019-01-12T13:15:34.647Z,2.61
2019-01-12T13:16:34.650Z,2.44
2019-01-12T13:17:34.687Z,2.52
2019-01-12T13:18:34.723Z,2.48